sensor_id;sensor_type;location;lat;lon;timestamp;P1;durP1;ratioP1;P2;durP2;ratioP2
6852;SDS011;3465;42.144;24.722;2022-12-11T00:00:49;68.27;;;29.43;;
6852;SDS011;3465;42.144;24.722;2022-12-11T00:03:15;76.40;;;30.40;;
6852;SDS011;3465;42.144;24.722;2022-12-11T00:05:41;62.90;;;29.27;;
6852;SDS011;3465;42.144;24.722;2022-12-11T00:08:08;72.90;;;30.27;;
6852;SDS011;3465;42.144;24.722;2022-12-11T00:10:34;65.30;;;29.67;;
6852;SDS011;3465;42.144;24.722;2022-12-11T00:13:00;68.13;;;30.03;;
6852;SDS011;3465;42.144;24.722;2022-12-11T00:15:25;64.47;;;30.20;;
6852;SDS011;3465;42.144;24.722;2022-12-11T00:17:51;76.93;;;31.33;;
6852;SDS011;3465;42.144;24.722;2022-12-11T00:20:16;78.63;;;31.67;;
6852;SDS011;3465;42.144;24.722;2022-12-11T00:22:42;72.57;;;30.70;;
6852;SDS011;3465;42.144;24.722;2022-12-11T00:25:07;73.73;;;31.33;;
6852;SDS011;3465;42.144;24.722;2022-12-11T00:27:33;67.57;;;30.73;;
6852;SDS011;3465;42.144;24.722;2022-12-11T00:29:58;72.00;;;32.23;;
6852;SDS011;3465;42.144;24.722;2022-12-11T00:32:24;72.87;;;30.63;;
6852;SDS011;3465;42.144;24.722;2022-12-11T00:34:49;79.20;;;32.80;;
6852;SDS011;3465;42.144;24.722;2022-12-11T00:37:15;70.83;;;31.77;;
6852;SDS011;3465;42.144;24.722;2022-12-11T00:39:40;80.47;;;31.43;;
6852;SDS011;3465;42.144;24.722;2022-12-11T00:42:06;72.90;;;31.40;;
6852;SDS011;3465;42.144;24.722;2022-12-11T00:44:32;77.10;;;31.43;;
6852;SDS011;3465;42.144;24.722;2022-12-11T00:46:58;80.47;;;33.67;;
6852;SDS011;3465;42.144;24.722;2022-12-11T00:49:23;84.47;;;32.97;;
6852;SDS011;3465;42.144;24.722;2022-12-11T00:51:48;71.43;;;31.23;;
6852;SDS011;3465;42.144;24.722;2022-12-11T00:54:14;83.13;;;31.77;;
6852;SDS011;3465;42.144;24.722;2022-12-11T00:56:39;78.60;;;32.07;;
6852;SDS011;3465;42.144;24.722;2022-12-11T00:59:05;80.17;;;31.30;;
6852;SDS011;3465;42.144;24.722;2022-12-11T01:01:30;79.83;;;31.77;;
6852;SDS011;3465;42.144;24.722;2022-12-11T01:03:56;70.30;;;28.80;;
6852;SDS011;3465;42.144;24.722;2022-12-11T01:06:22;64.60;;;28.40;;
6852;SDS011;3465;42.144;24.722;2022-12-11T01:08:49;66.03;;;27.90;;
6852;SDS011;3465;42.144;24.722;2022-12-11T01:11:39;65.53;;;28.27;;
6852;SDS011;3465;42.144;24.722;2022-12-11T01:14:06;70.90;;;28.60;;
6852;SDS011;3465;42.144;24.722;2022-12-11T01:16:32;69.17;;;28.00;;
6852;SDS011;3465;42.144;24.722;2022-12-11T01:18:57;68.77;;;28.03;;
6852;SDS011;3465;42.144;24.722;2022-12-11T01:21:23;68.13;;;27.53;;
6852;SDS011;3465;42.144;24.722;2022-12-11T01:23:49;63.97;;;27.30;;
6852;SDS011;3465;42.144;24.722;2022-12-11T01:26:15;65.27;;;27.63;;
6852;SDS011;3465;42.144;24.722;2022-12-11T01:28:41;62.10;;;25.87;;
6852;SDS011;3465;42.144;24.722;2022-12-11T01:31:09;62.63;;;27.40;;
6852;SDS011;3465;42.144;24.722;2022-12-11T01:33:36;66.33;;;27.33;;
6852;SDS011;3465;42.144;24.722;2022-12-11T01:36:09;64.83;;;27.43;;
6852;SDS011;3465;42.144;24.722;2022-12-11T01:38:38;64.53;;;28.57;;
6852;SDS011;3465;42.144;24.722;2022-12-11T01:41:03;63.17;;;27.07;;
6852;SDS011;3465;42.144;24.722;2022-12-11T01:43:29;61.50;;;26.17;;
6852;SDS011;3465;42.144;24.722;2022-12-11T01:45:54;60.43;;;27.43;;
6852;SDS011;3465;42.144;24.722;2022-12-11T01:48:21;69.80;;;28.40;;
6852;SDS011;3465;42.144;24.722;2022-12-11T01:50:50;60.90;;;27.93;;
6852;SDS011;3465;42.144;24.722;2022-12-11T01:53:19;69.13;;;29.13;;
6852;SDS011;3465;42.144;24.722;2022-12-11T01:55:48;72.57;;;29.60;;
6852;SDS011;3465;42.144;24.722;2022-12-11T01:58:17;67.13;;;29.93;;
6852;SDS011;3465;42.144;24.722;2022-12-11T02:00:45;67.77;;;27.87;;
6852;SDS011;3465;42.144;24.722;2022-12-11T02:03:11;61.73;;;28.30;;
6852;SDS011;3465;42.144;24.722;2022-12-11T02:05:36;67.53;;;28.67;;
6852;SDS011;3465;42.144;24.722;2022-12-11T02:08:02;73.47;;;29.23;;
6852;SDS011;3465;42.144;24.722;2022-12-11T02:10:48;71.57;;;28.27;;
6852;SDS011;3465;42.144;24.722;2022-12-11T02:13:43;62.23;;;27.03;;
6852;SDS011;3465;42.144;24.722;2022-12-11T02:16:20;61.43;;;27.80;;
6852;SDS011;3465;42.144;24.722;2022-12-11T02:18:56;65.03;;;28.70;;
6852;SDS011;3465;42.144;24.722;2022-12-11T02:21:36;66.10;;;27.83;;
6852;SDS011;3465;42.144;24.722;2022-12-11T02:27:02;67.63;;;28.03;;
6852;SDS011;3465;42.144;24.722;2022-12-11T02:29:45;69.97;;;27.20;;
6852;SDS011;3465;42.144;24.722;2022-12-11T02:32:24;63.37;;;27.93;;
6852;SDS011;3465;42.144;24.722;2022-12-11T02:34:58;60.90;;;27.13;;
6852;SDS011;3465;42.144;24.722;2022-12-11T02:37:28;66.07;;;28.13;;
6852;SDS011;3465;42.144;24.722;2022-12-11T02:39:56;62.50;;;27.50;;
6852;SDS011;3465;42.144;24.722;2022-12-11T02:42:23;63.60;;;26.57;;
6852;SDS011;3465;42.144;24.722;2022-12-11T02:44:53;62.37;;;27.53;;
6852;SDS011;3465;42.144;24.722;2022-12-11T02:47:21;67.47;;;27.80;;
6852;SDS011;3465;42.144;24.722;2022-12-11T02:49:49;69.10;;;26.67;;
6852;SDS011;3465;42.144;24.722;2022-12-11T02:52:18;60.97;;;26.20;;
6852;SDS011;3465;42.144;24.722;2022-12-11T02:54:46;68.43;;;27.10;;
6852;SDS011;3465;42.144;24.722;2022-12-11T02:57:15;63.90;;;26.23;;
6852;SDS011;3465;42.144;24.722;2022-12-11T02:59:59;61.93;;;25.47;;
6852;SDS011;3465;42.144;24.722;2022-12-11T03:02:25;61.03;;;24.93;;
6852;SDS011;3465;42.144;24.722;2022-12-11T03:04:51;58.50;;;25.00;;
6852;SDS011;3465;42.144;24.722;2022-12-11T03:07:18;57.03;;;23.97;;
6852;SDS011;3465;42.144;24.722;2022-12-11T03:09:47;57.70;;;24.13;;
6852;SDS011;3465;42.144;24.722;2022-12-11T03:12:24;56.40;;;25.00;;
6852;SDS011;3465;42.144;24.722;2022-12-11T03:14:56;53.47;;;23.40;;
6852;SDS011;3465;42.144;24.722;2022-12-11T03:20:06;54.03;;;23.17;;
6852;SDS011;3465;42.144;24.722;2022-12-11T03:25:11;56.53;;;23.83;;
6852;SDS011;3465;42.144;24.722;2022-12-11T03:27:57;53.07;;;23.10;;
6852;SDS011;3465;42.144;24.722;2022-12-11T03:30:28;59.73;;;22.70;;
6852;SDS011;3465;42.144;24.722;2022-12-11T03:33:06;52.53;;;21.70;;
6852;SDS011;3465;42.144;24.722;2022-12-11T03:38:02;51.93;;;22.00;;
6852;SDS011;3465;42.144;24.722;2022-12-11T03:40:32;57.20;;;21.27;;
6852;SDS011;3465;42.144;24.722;2022-12-11T03:43:00;45.60;;;19.93;;
6852;SDS011;3465;42.144;24.722;2022-12-11T03:45:27;50.50;;;19.20;;
6852;SDS011;3465;42.144;24.722;2022-12-11T03:47:54;51.33;;;19.63;;
6852;SDS011;3465;42.144;24.722;2022-12-11T03:50:23;51.43;;;19.57;;
6852;SDS011;3465;42.144;24.722;2022-12-11T03:52:51;54.03;;;19.47;;
6852;SDS011;3465;42.144;24.722;2022-12-11T03:55:18;45.13;;;18.87;;
6852;SDS011;3465;42.144;24.722;2022-12-11T03:57:46;50.67;;;19.13;;
6852;SDS011;3465;42.144;24.722;2022-12-11T04:00:14;54.03;;;20.97;;
6852;SDS011;3465;42.144;24.722;2022-12-11T04:02:41;48.97;;;20.23;;
6852;SDS011;3465;42.144;24.722;2022-12-11T04:05:08;44.97;;;20.20;;
6852;SDS011;3465;42.144;24.722;2022-12-11T04:07:35;52.43;;;19.53;;
6852;SDS011;3465;42.144;24.722;2022-12-11T04:10:00;52.33;;;20.10;;
6852;SDS011;3465;42.144;24.722;2022-12-11T04:12:26;46.70;;;19.70;;
6852;SDS011;3465;42.144;24.722;2022-12-11T04:14:51;49.60;;;18.97;;
6852;SDS011;3465;42.144;24.722;2022-12-11T04:17:29;48.87;;;19.57;;
6852;SDS011;3465;42.144;24.722;2022-12-11T04:20:15;50.33;;;18.57;;
6852;SDS011;3465;42.144;24.722;2022-12-11T04:23:02;44.33;;;19.80;;
6852;SDS011;3465;42.144;24.722;2022-12-11T04:25:47;50.67;;;19.80;;
6852;SDS011;3465;42.144;24.722;2022-12-11T04:28:13;47.10;;;19.67;;
6852;SDS011;3465;42.144;24.722;2022-12-11T04:30:38;45.73;;;18.47;;
6852;SDS011;3465;42.144;24.722;2022-12-11T04:33:03;53.63;;;19.97;;
6852;SDS011;3465;42.144;24.722;2022-12-11T04:35:29;45.80;;;19.17;;
6852;SDS011;3465;42.144;24.722;2022-12-11T04:37:54;47.93;;;20.50;;
6852;SDS011;3465;42.144;24.722;2022-12-11T04:40:20;48.77;;;19.60;;
6852;SDS011;3465;42.144;24.722;2022-12-11T04:42:46;50.57;;;18.93;;
6852;SDS011;3465;42.144;24.722;2022-12-11T04:45:12;43.07;;;19.67;;
6852;SDS011;3465;42.144;24.722;2022-12-11T04:47:38;45.50;;;19.33;;
6852;SDS011;3465;42.144;24.722;2022-12-11T04:50:05;46.83;;;18.27;;
6852;SDS011;3465;42.144;24.722;2022-12-11T04:52:32;46.77;;;18.43;;
6852;SDS011;3465;42.144;24.722;2022-12-11T04:54:57;45.03;;;17.33;;
6852;SDS011;3465;42.144;24.722;2022-12-11T04:57:22;41.00;;;17.73;;
6852;SDS011;3465;42.144;24.722;2022-12-11T04:59:48;41.53;;;18.00;;
6852;SDS011;3465;42.144;24.722;2022-12-11T05:02:14;39.80;;;16.17;;
6852;SDS011;3465;42.144;24.722;2022-12-11T05:04:40;37.47;;;16.03;;
6852;SDS011;3465;42.144;24.722;2022-12-11T05:07:05;39.27;;;16.57;;
6852;SDS011;3465;42.144;24.722;2022-12-11T05:09:31;38.90;;;16.23;;
6852;SDS011;3465;42.144;24.722;2022-12-11T05:11:57;43.97;;;17.67;;
6852;SDS011;3465;42.144;24.722;2022-12-11T05:14:22;33.60;;;16.63;;
6852;SDS011;3465;42.144;24.722;2022-12-11T05:16:48;39.87;;;16.30;;
6852;SDS011;3465;42.144;24.722;2022-12-11T05:19:14;40.50;;;16.30;;
6852;SDS011;3465;42.144;24.722;2022-12-11T05:21:39;34.97;;;15.80;;
6852;SDS011;3465;42.144;24.722;2022-12-11T05:24:05;38.33;;;15.20;;
6852;SDS011;3465;42.144;24.722;2022-12-11T05:26:31;38.87;;;15.93;;
6852;SDS011;3465;42.144;24.722;2022-12-11T05:28:56;34.33;;;15.30;;
6852;SDS011;3465;42.144;24.722;2022-12-11T05:31:23;41.70;;;16.70;;
6852;SDS011;3465;42.144;24.722;2022-12-11T05:33:50;50.17;;;16.27;;
6852;SDS011;3465;42.144;24.722;2022-12-11T05:36:24;39.33;;;15.97;;
6852;SDS011;3465;42.144;24.722;2022-12-11T05:38:51;33.17;;;15.30;;
6852;SDS011;3465;42.144;24.722;2022-12-11T05:41:26;33.47;;;14.77;;
6852;SDS011;3465;42.144;24.722;2022-12-11T05:43:53;34.27;;;14.97;;
6852;SDS011;3465;42.144;24.722;2022-12-11T05:46:21;38.40;;;14.87;;
6852;SDS011;3465;42.144;24.722;2022-12-11T05:48:49;33.53;;;14.37;;
6852;SDS011;3465;42.144;24.722;2022-12-11T05:51:16;34.17;;;16.60;;
6852;SDS011;3465;42.144;24.722;2022-12-11T05:53:42;32.80;;;15.20;;
6852;SDS011;3465;42.144;24.722;2022-12-11T05:56:17;34.50;;;15.27;;
6852;SDS011;3465;42.144;24.722;2022-12-11T05:58:47;36.00;;;15.77;;
6852;SDS011;3465;42.144;24.722;2022-12-11T06:01:15;41.97;;;15.43;;
6852;SDS011;3465;42.144;24.722;2022-12-11T06:03:45;40.07;;;17.00;;
6852;SDS011;3465;42.144;24.722;2022-12-11T06:06:13;37.27;;;15.27;;
6852;SDS011;3465;42.144;24.722;2022-12-11T06:08:39;34.23;;;15.83;;
6852;SDS011;3465;42.144;24.722;2022-12-11T06:11:06;41.13;;;17.00;;
6852;SDS011;3465;42.144;24.722;2022-12-11T06:13:32;36.63;;;17.57;;
6852;SDS011;3465;42.144;24.722;2022-12-11T06:16:01;58.27;;;27.70;;
6852;SDS011;3465;42.144;24.722;2022-12-11T06:18:27;41.87;;;16.80;;
6852;SDS011;3465;42.144;24.722;2022-12-11T06:20:52;37.70;;;17.20;;
6852;SDS011;3465;42.144;24.722;2022-12-11T06:23:18;43.27;;;17.47;;
6852;SDS011;3465;42.144;24.722;2022-12-11T06:25:44;51.10;;;25.23;;
6852;SDS011;3465;42.144;24.722;2022-12-11T06:28:09;37.57;;;17.67;;
6852;SDS011;3465;42.144;24.722;2022-12-11T06:30:35;43.10;;;17.80;;
6852;SDS011;3465;42.144;24.722;2022-12-11T06:33:01;35.07;;;17.17;;
6852;SDS011;3465;42.144;24.722;2022-12-11T06:35:26;36.40;;;18.03;;
6852;SDS011;3465;42.144;24.722;2022-12-11T06:37:52;34.47;;;16.93;;
6852;SDS011;3465;42.144;24.722;2022-12-11T06:40:17;39.00;;;19.07;;
6852;SDS011;3465;42.144;24.722;2022-12-11T06:42:42;37.67;;;17.70;;
6852;SDS011;3465;42.144;24.722;2022-12-11T06:45:08;78.70;;;34.80;;
6852;SDS011;3465;42.144;24.722;2022-12-11T06:47:34;42.40;;;17.53;;
6852;SDS011;3465;42.144;24.722;2022-12-11T06:49:59;42.10;;;18.43;;
6852;SDS011;3465;42.144;24.722;2022-12-11T06:52:26;38.43;;;18.47;;
6852;SDS011;3465;42.144;24.722;2022-12-11T06:54:52;38.97;;;17.10;;
6852;SDS011;3465;42.144;24.722;2022-12-11T06:57:18;37.50;;;15.80;;
6852;SDS011;3465;42.144;24.722;2022-12-11T06:59:43;31.90;;;15.17;;
6852;SDS011;3465;42.144;24.722;2022-12-11T07:02:12;68.13;;;29.33;;
6852;SDS011;3465;42.144;24.722;2022-12-11T07:04:42;43.43;;;20.03;;
6852;SDS011;3465;42.144;24.722;2022-12-11T07:07:08;41.40;;;17.70;;
6852;SDS011;3465;42.144;24.722;2022-12-11T07:09:35;36.17;;;16.70;;
6852;SDS011;3465;42.144;24.722;2022-12-11T07:12:02;37.53;;;15.73;;
6852;SDS011;3465;42.144;24.722;2022-12-11T07:14:28;84.60;;;34.53;;
6852;SDS011;3465;42.144;24.722;2022-12-11T07:16:55;48.27;;;20.97;;
6852;SDS011;3465;42.144;24.722;2022-12-11T07:19:21;231.43;;;87.70;;
6852;SDS011;3465;42.144;24.722;2022-12-11T07:21:46;86.40;;;34.37;;
6852;SDS011;3465;42.144;24.722;2022-12-11T07:24:12;43.13;;;17.43;;
6852;SDS011;3465;42.144;24.722;2022-12-11T07:26:37;39.53;;;17.37;;
6852;SDS011;3465;42.144;24.722;2022-12-11T07:29:03;39.90;;;17.27;;
6852;SDS011;3465;42.144;24.722;2022-12-11T07:31:28;35.43;;;16.40;;
6852;SDS011;3465;42.144;24.722;2022-12-11T07:33:55;34.23;;;16.57;;
6852;SDS011;3465;42.144;24.722;2022-12-11T07:36:23;33.20;;;16.40;;
6852;SDS011;3465;42.144;24.722;2022-12-11T07:38:49;38.17;;;18.50;;
6852;SDS011;3465;42.144;24.722;2022-12-11T07:41:16;30.77;;;16.03;;
6852;SDS011;3465;42.144;24.722;2022-12-11T07:43:42;38.33;;;17.90;;
6852;SDS011;3465;42.144;24.722;2022-12-11T07:46:12;38.17;;;17.03;;
6852;SDS011;3465;42.144;24.722;2022-12-11T07:48:40;42.43;;;20.70;;
6852;SDS011;3465;42.144;24.722;2022-12-11T07:51:14;39.53;;;17.33;;
6852;SDS011;3465;42.144;24.722;2022-12-11T07:53:42;34.13;;;16.30;;
6852;SDS011;3465;42.144;24.722;2022-12-11T07:56:08;32.83;;;16.33;;
6852;SDS011;3465;42.144;24.722;2022-12-11T07:58:33;33.67;;;16.47;;
6852;SDS011;3465;42.144;24.722;2022-12-11T08:01:00;34.67;;;15.67;;
6852;SDS011;3465;42.144;24.722;2022-12-11T08:03:25;31.90;;;16.40;;
6852;SDS011;3465;42.144;24.722;2022-12-11T08:05:51;36.43;;;17.10;;
6852;SDS011;3465;42.144;24.722;2022-12-11T08:08:20;48.60;;;18.03;;
6852;SDS011;3465;42.144;24.722;2022-12-11T08:10:45;32.33;;;17.40;;
6852;SDS011;3465;42.144;24.722;2022-12-11T08:13:10;40.43;;;19.30;;
6852;SDS011;3465;42.144;24.722;2022-12-11T08:15:36;36.33;;;16.40;;
6852;SDS011;3465;42.144;24.722;2022-12-11T08:18:02;36.37;;;17.07;;
6852;SDS011;3465;42.144;24.722;2022-12-11T08:20:27;28.37;;;14.53;;
6852;SDS011;3465;42.144;24.722;2022-12-11T08:22:54;25.03;;;13.40;;
6852;SDS011;3465;42.144;24.722;2022-12-11T08:25:20;26.57;;;12.60;;
6852;SDS011;3465;42.144;24.722;2022-12-11T08:27:45;28.97;;;12.30;;
6852;SDS011;3465;42.144;24.722;2022-12-11T08:30:11;26.00;;;10.87;;
6852;SDS011;3465;42.144;24.722;2022-12-11T08:32:36;28.63;;;10.03;;
6852;SDS011;3465;42.144;24.722;2022-12-11T08:35:02;26.90;;;9.53;;
6852;SDS011;3465;42.144;24.722;2022-12-11T08:37:27;19.40;;;8.73;;
6852;SDS011;3465;42.144;24.722;2022-12-11T08:39:53;27.03;;;9.23;;
6852;SDS011;3465;42.144;24.722;2022-12-11T08:42:19;16.10;;;7.17;;
6852;SDS011;3465;42.144;24.722;2022-12-11T08:44:44;19.60;;;8.00;;
6852;SDS011;3465;42.144;24.722;2022-12-11T08:47:11;19.53;;;8.20;;
6852;SDS011;3465;42.144;24.722;2022-12-11T08:49:37;23.07;;;9.00;;
6852;SDS011;3465;42.144;24.722;2022-12-11T08:52:03;23.10;;;12.00;;
6852;SDS011;3465;42.144;24.722;2022-12-11T08:54:29;15.57;;;7.27;;
6852;SDS011;3465;42.144;24.722;2022-12-11T08:56:54;30.10;;;9.93;;
6852;SDS011;3465;42.144;24.722;2022-12-11T08:59:20;26.97;;;9.87;;
6852;SDS011;3465;42.144;24.722;2022-12-11T09:01:45;15.93;;;7.40;;
6852;SDS011;3465;42.144;24.722;2022-12-11T09:04:11;23.17;;;8.00;;
6852;SDS011;3465;42.144;24.722;2022-12-11T09:06:36;14.97;;;7.10;;
6852;SDS011;3465;42.144;24.722;2022-12-11T09:09:02;17.47;;;7.60;;
6852;SDS011;3465;42.144;24.722;2022-12-11T09:11:30;15.43;;;6.10;;
6852;SDS011;3465;42.144;24.722;2022-12-11T09:13:58;17.77;;;7.03;;
6852;SDS011;3465;42.144;24.722;2022-12-11T09:16:24;17.77;;;6.87;;
6852;SDS011;3465;42.144;24.722;2022-12-11T09:18:51;26.20;;;7.83;;
6852;SDS011;3465;42.144;24.722;2022-12-11T09:21:19;28.57;;;8.60;;
6852;SDS011;3465;42.144;24.722;2022-12-11T09:23:46;20.83;;;6.93;;
6852;SDS011;3465;42.144;24.722;2022-12-11T09:26:13;24.93;;;9.63;;
6852;SDS011;3465;42.144;24.722;2022-12-11T09:28:40;18.23;;;8.57;;
6852;SDS011;3465;42.144;24.722;2022-12-11T09:31:09;22.70;;;9.73;;
6852;SDS011;3465;42.144;24.722;2022-12-11T09:33:34;20.20;;;9.57;;
6852;SDS011;3465;42.144;24.722;2022-12-11T09:36:00;39.50;;;11.10;;
6852;SDS011;3465;42.144;24.722;2022-12-11T09:38:27;39.60;;;10.57;;
6852;SDS011;3465;42.144;24.722;2022-12-11T09:40:54;22.87;;;9.30;;
6852;SDS011;3465;42.144;24.722;2022-12-11T09:43:30;23.00;;;8.83;;
6852;SDS011;3465;42.144;24.722;2022-12-11T09:46:04;20.30;;;8.57;;
6852;SDS011;3465;42.144;24.722;2022-12-11T09:48:34;28.00;;;7.60;;
6852;SDS011;3465;42.144;24.722;2022-12-11T09:51:04;55.00;;;10.20;;
6852;SDS011;3465;42.144;24.722;2022-12-11T09:53:41;35.40;;;10.60;;
6852;SDS011;3465;42.144;24.722;2022-12-11T10:02:31;29.00;;;9.40;;
6852;SDS011;3465;42.144;24.722;2022-12-11T10:05:14;27.57;;;9.70;;
6852;SDS011;3465;42.144;24.722;2022-12-11T10:07:50;16.03;;;7.17;;
6852;SDS011;3465;42.144;24.722;2022-12-11T10:13:00;13.97;;;6.13;;
6852;SDS011;3465;42.144;24.722;2022-12-11T10:18:04;11.03;;;4.43;;
6852;SDS011;3465;42.144;24.722;2022-12-11T10:20:36;14.00;;;4.90;;
6852;SDS011;3465;42.144;24.722;2022-12-11T10:23:08;11.97;;;4.90;;
6852;SDS011;3465;42.144;24.722;2022-12-11T10:25:45;10.63;;;3.93;;
6852;SDS011;3465;42.144;24.722;2022-12-11T10:28:16;10.40;;;4.40;;
6852;SDS011;3465;42.144;24.722;2022-12-11T10:33:26;13.77;;;4.77;;
6852;SDS011;3465;42.144;24.722;2022-12-11T10:36:16;29.67;;;5.90;;
6852;SDS011;3465;42.144;24.722;2022-12-11T10:38:45;9.70;;;4.67;;
6852;SDS011;3465;42.144;24.722;2022-12-11T10:41:21;17.87;;;6.23;;
6852;SDS011;3465;42.144;24.722;2022-12-11T10:43:54;22.77;;;6.70;;
6852;SDS011;3465;42.144;24.722;2022-12-11T10:46:23;14.07;;;4.10;;
6852;SDS011;3465;42.144;24.722;2022-12-11T10:48:53;17.13;;;5.67;;
6852;SDS011;3465;42.144;24.722;2022-12-11T10:51:24;40.07;;;9.57;;
6852;SDS011;3465;42.144;24.722;2022-12-11T10:54:05;23.70;;;7.43;;
6852;SDS011;3465;42.144;24.722;2022-12-11T10:56:51;22.33;;;6.67;;
6852;SDS011;3465;42.144;24.722;2022-12-11T10:59:21;20.50;;;6.67;;
6852;SDS011;3465;42.144;24.722;2022-12-11T11:02:00;13.07;;;5.00;;
6852;SDS011;3465;42.144;24.722;2022-12-11T11:04:36;13.77;;;5.20;;
6852;SDS011;3465;42.144;24.722;2022-12-11T11:07:13;17.60;;;6.10;;
6852;SDS011;3465;42.144;24.722;2022-12-11T11:12:37;18.30;;;5.60;;
6852;SDS011;3465;42.144;24.722;2022-12-11T11:15:06;18.20;;;5.87;;
6852;SDS011;3465;42.144;24.722;2022-12-11T11:17:46;35.47;;;7.43;;
6852;SDS011;3465;42.144;24.722;2022-12-11T11:20:17;20.47;;;5.50;;
6852;SDS011;3465;42.144;24.722;2022-12-11T11:22:46;23.37;;;6.30;;
6852;SDS011;3465;42.144;24.722;2022-12-11T11:25:19;20.17;;;5.97;;
6852;SDS011;3465;42.144;24.722;2022-12-11T11:28:05;16.20;;;6.07;;
6852;SDS011;3465;42.144;24.722;2022-12-11T11:30:39;18.70;;;5.80;;
6852;SDS011;3465;42.144;24.722;2022-12-11T11:33:13;14.03;;;5.87;;
6852;SDS011;3465;42.144;24.722;2022-12-11T11:35:50;19.40;;;6.33;;
6852;SDS011;3465;42.144;24.722;2022-12-11T11:38:56;30.70;;;7.73;;
6852;SDS011;3465;42.144;24.722;2022-12-11T11:41:36;38.43;;;14.60;;
6852;SDS011;3465;42.144;24.722;2022-12-11T11:44:09;39.27;;;13.60;;
6852;SDS011;3465;42.144;24.722;2022-12-11T11:46:46;69.03;;;24.70;;
6852;SDS011;3465;42.144;24.722;2022-12-11T11:52:17;9.97;;;4.40;;
6852;SDS011;3465;42.144;24.722;2022-12-11T11:57:59;11.17;;;5.27;;
6852;SDS011;3465;42.144;24.722;2022-12-11T12:00:31;13.57;;;4.90;;
6852;SDS011;3465;42.144;24.722;2022-12-11T12:03:01;14.33;;;5.30;;
6852;SDS011;3465;42.144;24.722;2022-12-11T12:08:33;59.10;;;18.37;;
6852;SDS011;3465;42.144;24.722;2022-12-11T12:16:31;43.70;;;15.50;;
6852;SDS011;3465;42.144;24.722;2022-12-11T12:21:39;39.03;;;11.50;;
6852;SDS011;3465;42.144;24.722;2022-12-11T12:26:36;21.20;;;8.53;;
6852;SDS011;3465;42.144;24.722;2022-12-11T12:32:01;28.13;;;10.77;;
6852;SDS011;3465;42.144;24.722;2022-12-11T12:45:09;36.47;;;9.97;;
6852;SDS011;3465;42.144;24.722;2022-12-11T12:47:37;19.57;;;7.13;;
6852;SDS011;3465;42.144;24.722;2022-12-11T12:50:09;23.10;;;8.33;;
6852;SDS011;3465;42.144;24.722;2022-12-11T12:52:38;22.20;;;6.50;;
6852;SDS011;3465;42.144;24.722;2022-12-11T12:55:26;27.50;;;7.90;;
6852;SDS011;3465;42.144;24.722;2022-12-11T12:57:59;33.93;;;9.33;;
6852;SDS011;3465;42.144;24.722;2022-12-11T13:02:51;18.67;;;7.33;;
6852;SDS011;3465;42.144;24.722;2022-12-11T13:05:21;18.67;;;7.83;;
6852;SDS011;3465;42.144;24.722;2022-12-11T13:07:51;14.17;;;7.20;;
6852;SDS011;3465;42.144;24.722;2022-12-11T13:10:26;24.33;;;7.33;;
6852;SDS011;3465;42.144;24.722;2022-12-11T13:12:55;17.63;;;6.50;;
6852;SDS011;3465;42.144;24.722;2022-12-11T13:15:24;14.07;;;6.73;;
6852;SDS011;3465;42.144;24.722;2022-12-11T13:17:55;22.27;;;8.50;;
6852;SDS011;3465;42.144;24.722;2022-12-11T13:20:22;25.10;;;8.43;;
6852;SDS011;3465;42.144;24.722;2022-12-11T13:25:28;19.13;;;6.77;;
6852;SDS011;3465;42.144;24.722;2022-12-11T13:28:05;14.80;;;7.00;;
6852;SDS011;3465;42.144;24.722;2022-12-11T13:30:32;32.50;;;8.87;;
6852;SDS011;3465;42.144;24.722;2022-12-11T13:33:32;27.83;;;9.83;;
6852;SDS011;3465;42.144;24.722;2022-12-11T13:38:35;44.97;;;11.93;;
6852;SDS011;3465;42.144;24.722;2022-12-11T13:41:03;46.47;;;11.17;;
6852;SDS011;3465;42.144;24.722;2022-12-11T13:43:35;29.20;;;11.70;;
6852;SDS011;3465;42.144;24.722;2022-12-11T13:46:03;53.13;;;28.37;;
6852;SDS011;3465;42.144;24.722;2022-12-11T13:48:47;36.80;;;17.67;;
6852;SDS011;3465;42.144;24.722;2022-12-11T13:51:25;45.43;;;13.70;;
6852;SDS011;3465;42.144;24.722;2022-12-11T13:56:38;30.70;;;12.27;;
6852;SDS011;3465;42.144;24.722;2022-12-11T13:59:04;32.30;;;10.67;;
6852;SDS011;3465;42.144;24.722;2022-12-11T14:01:31;37.07;;;10.47;;
6852;SDS011;3465;42.144;24.722;2022-12-11T14:04:09;40.80;;;12.37;;
6852;SDS011;3465;42.144;24.722;2022-12-11T14:06:39;46.27;;;13.13;;
6852;SDS011;3465;42.144;24.722;2022-12-11T14:09:05;47.47;;;16.17;;
6852;SDS011;3465;42.144;24.722;2022-12-11T14:14:03;45.80;;;13.17;;
6852;SDS011;3465;42.144;24.722;2022-12-11T14:16:32;74.87;;;23.63;;
6852;SDS011;3465;42.144;24.722;2022-12-11T14:19:02;25.97;;;10.20;;
6852;SDS011;3465;42.144;24.722;2022-12-11T14:21:31;41.67;;;14.87;;
6852;SDS011;3465;42.144;24.722;2022-12-11T14:23:58;33.07;;;12.07;;
6852;SDS011;3465;42.144;24.722;2022-12-11T14:28:52;30.83;;;13.47;;
6852;SDS011;3465;42.144;24.722;2022-12-11T14:31:22;36.50;;;15.70;;
6852;SDS011;3465;42.144;24.722;2022-12-11T14:33:50;47.80;;;21.80;;
6852;SDS011;3465;42.144;24.722;2022-12-11T14:36:25;37.63;;;17.43;;
6852;SDS011;3465;42.144;24.722;2022-12-11T14:38:52;56.37;;;24.23;;
6852;SDS011;3465;42.144;24.722;2022-12-11T14:41:26;39.50;;;16.40;;
6852;SDS011;3465;42.144;24.722;2022-12-11T14:43:58;17.87;;;7.20;;
6852;SDS011;3465;42.144;24.722;2022-12-11T14:49:28;13.20;;;6.33;;
6852;SDS011;3465;42.144;24.722;2022-12-11T14:52:19;7.60;;;3.87;;
6852;SDS011;3465;42.144;24.722;2022-12-11T14:54:51;8.20;;;4.13;;
6852;SDS011;3465;42.144;24.722;2022-12-11T14:57:22;11.73;;;6.23;;
6852;SDS011;3465;42.144;24.722;2022-12-11T14:59:50;9.13;;;4.70;;
6852;SDS011;3465;42.144;24.722;2022-12-11T15:04:55;11.57;;;5.63;;
6852;SDS011;3465;42.144;24.722;2022-12-11T15:07:25;18.87;;;11.63;;
6852;SDS011;3465;42.144;24.722;2022-12-11T15:09:50;10.47;;;4.97;;
6852;SDS011;3465;42.144;24.722;2022-12-11T15:12:17;10.03;;;4.60;;
6852;SDS011;3465;42.144;24.722;2022-12-11T15:14:47;8.33;;;4.90;;
6852;SDS011;3465;42.144;24.722;2022-12-11T15:17:27;7.33;;;4.57;;
6852;SDS011;3465;42.144;24.722;2022-12-11T15:19:54;4.83;;;3.47;;
6852;SDS011;3465;42.144;24.722;2022-12-11T15:22:27;9.60;;;5.03;;
6852;SDS011;3465;42.144;24.722;2022-12-11T15:24:55;18.20;;;9.17;;
6852;SDS011;3465;42.144;24.722;2022-12-11T15:27:29;10.13;;;3.60;;
6852;SDS011;3465;42.144;24.722;2022-12-11T15:29:59;8.77;;;3.33;;
6852;SDS011;3465;42.144;24.722;2022-12-11T15:32:25;13.57;;;4.27;;
6852;SDS011;3465;42.144;24.722;2022-12-11T15:34:55;5.73;;;3.27;;
6852;SDS011;3465;42.144;24.722;2022-12-11T15:39:53;5.80;;;3.13;;
6852;SDS011;3465;42.144;24.722;2022-12-11T15:42:30;7.43;;;4.50;;
6852;SDS011;3465;42.144;24.722;2022-12-11T15:45:04;3.33;;;2.60;;
6852;SDS011;3465;42.144;24.722;2022-12-11T15:47:31;5.03;;;3.07;;
6852;SDS011;3465;42.144;24.722;2022-12-11T15:50:01;7.23;;;3.53;;
6852;SDS011;3465;42.144;24.722;2022-12-11T15:52:36;13.77;;;6.67;;
6852;SDS011;3465;42.144;24.722;2022-12-11T15:55:02;6.50;;;3.93;;
6852;SDS011;3465;42.144;24.722;2022-12-11T15:57:28;8.57;;;4.00;;
6852;SDS011;3465;42.144;24.722;2022-12-11T15:59:54;6.03;;;3.67;;
6852;SDS011;3465;42.144;24.722;2022-12-11T16:02:20;11.50;;;5.87;;
6852;SDS011;3465;42.144;24.722;2022-12-11T16:04:45;9.97;;;5.70;;
6852;SDS011;3465;42.144;24.722;2022-12-11T16:07:29;7.20;;;4.07;;
6852;SDS011;3465;42.144;24.722;2022-12-11T16:09:54;42.67;;;17.07;;
6852;SDS011;3465;42.144;24.722;2022-12-11T16:12:19;28.03;;;12.03;;
6852;SDS011;3465;42.144;24.722;2022-12-11T16:14:45;15.00;;;7.27;;
6852;SDS011;3465;42.144;24.722;2022-12-11T16:17:11;29.77;;;16.57;;